createdAt,value
2022-12-03T00:02:58.135Z,-1.86
2022-12-03T00:08:07.758Z,-1.89
2022-12-03T00:13:17.314Z,-1.86
2022-12-03T00:18:26.882Z,-1.80
2022-12-03T00:23:41.811Z,-1.81
2022-12-03T00:28:52.240Z,-1.76
2022-12-03T00:34:02.125Z,-1.66
2022-12-03T00:39:11.825Z,-1.65
2022-12-03T00:44:21.491Z,-1.64
2022-12-03T00:49:30.905Z,-1.67
2022-12-03T00:54:40.401Z,-1.82
2022-12-03T00:59:50.304Z,-1.88
2022-12-03T01:04:59.867Z,-1.75
2022-12-03T01:10:11.605Z,-1.63
2022-12-03T01:15:21.558Z,-1.54
2022-12-03T01:20:31.109Z,-1.61
2022-12-03T01:25:40.702Z,-1.67
2022-12-03T01:31:07.773Z,-1.75
2022-12-03T01:36:17.436Z,-1.78
2022-12-03T01:41:28.384Z,-1.71
2022-12-03T01:46:42.355Z,-1.65
2022-12-03T01:51:53.990Z,-1.49
2022-12-03T01:57:03.728Z,-1.45
2022-12-03T02:02:23.309Z,-1.42
2022-12-03T02:07:35.483Z,-1.50
2022-12-03T02:12:50.728Z,-1.59
2022-12-03T02:18:00.879Z,-1.62
2022-12-03T02:23:20.063Z,-1.66
2022-12-03T02:28:29.854Z,-1.64
2022-12-03T02:33:39.830Z,-1.56
2022-12-03T02:38:51.055Z,-1.50
2022-12-03T02:44:00.862Z,-1.64
2022-12-03T02:49:11.094Z,-1.62
2022-12-03T02:54:20.905Z,-1.57
2022-12-03T02:59:30.599Z,-1.57
2022-12-03T03:04:40.649Z,-1.56
2022-12-03T03:09:50.438Z,-1.58
2022-12-03T03:15:00.838Z,-1.57
2022-12-03T03:20:15.200Z,-1.50
2022-12-03T03:25:25.607Z,-1.42
2022-12-03T03:30:36.817Z,-1.39
2022-12-03T03:35:49.501Z,-1.46
2022-12-03T03:41:00.134Z,-1.58
2022-12-03T03:46:11.095Z,-1.53
2022-12-03T03:51:22.372Z,-1.47
2022-12-03T03:56:32.190Z,-1.47
2022-12-03T04:01:41.987Z,-1.42
2022-12-03T04:06:51.940Z,-1.37
2022-12-03T04:12:18.984Z,-1.50
2022-12-03T04:17:28.511Z,-1.59
2022-12-03T04:22:44.164Z,-1.57
2022-12-03T04:28:11.308Z,-1.50
2022-12-03T04:33:38.684Z,-1.36
2022-12-03T04:38:48.477Z,-1.28
2022-12-03T04:44:15.376Z,-1.23
2022-12-03T04:49:25.147Z,-1.27
2022-12-03T04:54:35.060Z,-1.29
2022-12-03T04:59:44.759Z,-1.34
2022-12-03T05:04:54.650Z,-1.35
2022-12-03T05:10:05.013Z,-1.31
2022-12-03T05:15:14.994Z,-1.31
2022-12-03T05:20:46.951Z,-1.31
2022-12-03T05:26:01.437Z,-1.44
2022-12-03T05:31:11.498Z,-1.43
2022-12-03T05:36:21.250Z,-1.37
2022-12-03T05:41:48.060Z,-1.35
2022-12-03T05:46:57.681Z,-1.40
2022-12-03T05:52:07.681Z,-1.35
2022-12-03T05:57:17.172Z,-1.28
2022-12-03T06:02:26.877Z,-1.28
2022-12-03T06:07:36.566Z,-1.27
2022-12-03T06:12:46.393Z,-1.27
2022-12-03T06:17:56.437Z,-1.19
2022-12-03T06:23:05.828Z,-1.07
2022-12-03T06:28:15.271Z,-1.01
2022-12-03T06:33:24.584Z,-1.01
2022-12-03T06:38:34.989Z,-1.03
2022-12-03T06:43:44.464Z,-1.05
2022-12-03T06:48:54.191Z,-1.08
2022-12-03T06:54:03.847Z,-1.07
2022-12-03T06:59:13.652Z,-1.08
2022-12-03T07:04:23.131Z,-1.03
2022-12-03T07:09:32.991Z,-0.99
2022-12-03T07:14:42.413Z,-1.07
2022-12-03T07:19:52.155Z,-1.13
2022-12-03T07:25:01.672Z,-1.16
2022-12-03T07:30:15.658Z,-1.13
2022-12-03T07:35:25.173Z,-1.05
2022-12-03T07:40:34.836Z,-0.97
2022-12-03T07:45:44.632Z,-0.88
2022-12-03T07:50:54.193Z,-0.81
2022-12-03T07:56:03.702Z,-0.75
2022-12-03T08:01:13.667Z,-0.86
2022-12-03T08:06:23.487Z,-0.85
2022-12-03T08:11:33.954Z,-0.86
2022-12-03T08:16:45.429Z,-0.94
2022-12-03T08:21:59.659Z,-0.97
2022-12-03T08:27:21.577Z,-0.98
2022-12-03T08:32:32.251Z,-1.09
2022-12-03T08:37:42.218Z,-1.07
2022-12-03T08:42:52.088Z,-1.07
2022-12-03T08:48:04.020Z,-1.02
2022-12-03T08:53:31.513Z,-0.98
2022-12-03T08:58:46.371Z,-0.91
2022-12-03T09:03:58.091Z,-0.86
2022-12-03T09:09:07.983Z,-0.79
2022-12-03T09:14:21.356Z,-0.75
2022-12-03T09:19:32.286Z,-0.70
2022-12-03T09:24:41.751Z,-0.75
2022-12-03T09:29:51.349Z,-0.80
2022-12-03T09:35:01.091Z,-0.78
2022-12-03T09:40:13.316Z,-0.84
2022-12-03T09:45:23.153Z,-0.83
2022-12-03T09:50:34.277Z,-0.91
2022-12-03T09:55:51.309Z,-0.98
2022-12-03T10:01:01.272Z,-0.82
2022-12-03T10:06:15.597Z,-0.73
2022-12-03T10:11:28.258Z,-0.69
2022-12-03T10:16:40.516Z,-0.68
2022-12-03T10:21:50.365Z,-0.63
2022-12-03T10:27:02.353Z,-0.64
2022-12-03T10:32:13.875Z,-0.69
2022-12-03T10:37:25.743Z,-0.79
2022-12-03T10:42:38.914Z,-0.77
2022-12-03T10:48:06.273Z,-0.78
2022-12-03T10:53:16.049Z,-0.83
2022-12-03T10:58:31.797Z,-0.91
2022-12-03T11:03:41.881Z,-0.94
2022-12-03T11:08:57.798Z,-1.08
2022-12-03T11:14:11.704Z,-1.24
2022-12-03T11:19:46.852Z,-1.27
2022-12-03T11:25:47.180Z,-1.26
2022-12-03T11:31:12.623Z,-1.20
2022-12-03T11:36:42.124Z,-1.13
2022-12-03T11:42:41.526Z,-1.13
2022-12-03T11:48:12.014Z,-1.14
2022-12-03T11:53:26.962Z,-1.16
2022-12-03T11:58:38.434Z,-1.20
2022-12-03T12:03:51.742Z,-1.20
2022-12-03T12:09:04.254Z,-1.20
2022-12-03T12:14:15.552Z,-1.09
2022-12-03T12:19:43.535Z,-0.99
2022-12-03T12:24:55.697Z,-0.87
2022-12-03T12:30:09.609Z,-0.83
2022-12-03T12:35:25.546Z,-0.80
2022-12-03T12:40:38.281Z,-0.74
2022-12-03T12:45:48.417Z,-0.67
2022-12-03T12:51:10.338Z,-0.57
2022-12-03T12:56:30.343Z,-0.52
2022-12-03T13:01:40.410Z,-0.43
2022-12-03T13:06:53.467Z,-0.30
2022-12-03T13:12:07.660Z,-0.06
2022-12-03T13:17:24.705Z,0.12
2022-12-03T13:22:34.418Z,0.25
2022-12-03T13:27:47.237Z,0.16
2022-12-03T13:32:58.920Z,0.00
2022-12-03T13:38:18.404Z,-0.13
2022-12-03T13:43:31.130Z,-0.26
2022-12-03T13:48:43.557Z,-0.44
2022-12-03T13:53:53.807Z,-0.48
2022-12-03T13:59:04.641Z,-0.49
2022-12-03T14:04:14.511Z,-0.43
2022-12-03T14:09:24.144Z,-0.49
2022-12-03T14:14:34.248Z,-0.63
2022-12-03T14:19:44.000Z,-0.71
2022-12-03T14:24:53.650Z,-0.73
2022-12-03T14:30:03.876Z,-0.70
2022-12-03T14:35:14.272Z,-0.61
2022-12-03T14:40:24.227Z,-0.63
2022-12-03T14:45:33.904Z,-0.66
2022-12-03T14:50:43.809Z,-0.67
2022-12-03T14:55:54.672Z,-0.71
2022-12-03T15:01:04.364Z,-0.69
2022-12-03T15:06:14.889Z,-0.61
2022-12-03T15:11:24.886Z,-0.45
2022-12-03T15:16:34.488Z,-0.34
2022-12-03T15:21:44.258Z,-0.40
2022-12-03T15:26:53.893Z,-0.53
2022-12-03T15:32:03.648Z,-0.66
2022-12-03T15:37:13.227Z,-0.75
2022-12-03T15:42:22.663Z,-0.71
2022-12-03T15:47:32.611Z,-0.64
2022-12-03T15:52:42.125Z,-0.57
2022-12-03T15:57:52.043Z,-0.57
2022-12-03T16:03:01.549Z,-0.57
2022-12-03T16:08:11.467Z,-0.63
2022-12-03T16:13:21.317Z,-0.69
2022-12-03T16:18:31.059Z,-0.73
2022-12-03T16:23:40.492Z,-0.66
2022-12-03T16:28:49.945Z,-0.52
2022-12-03T16:33:59.413Z,-0.35
2022-12-03T16:39:09.304Z,-0.32
2022-12-03T16:44:32.420Z,-0.32
2022-12-03T16:49:42.061Z,-0.38
2022-12-03T16:54:51.937Z,-0.47
2022-12-03T17:00:01.715Z,-0.54
2022-12-03T17:05:12.135Z,-0.52
2022-12-03T17:10:21.924Z,-0.44
2022-12-03T17:15:31.812Z,-0.38
2022-12-03T17:20:41.642Z,-0.34
2022-12-03T17:25:51.264Z,-0.37
2022-12-03T17:31:00.999Z,-0.42
2022-12-03T17:36:12.284Z,-0.42
2022-12-03T17:41:22.652Z,-0.32
2022-12-03T17:46:32.260Z,-0.17
2022-12-03T17:51:41.875Z,-0.17
2022-12-03T17:56:51.458Z,-0.22
2022-12-03T18:02:01.067Z,-0.20
2022-12-03T18:07:11.129Z,-0.21
2022-12-03T18:12:20.812Z,-0.18
2022-12-03T18:17:30.227Z,-0.24
2022-12-03T18:22:40.213Z,-0.24
2022-12-03T18:27:50.099Z,-0.20
2022-12-03T18:32:59.646Z,-0.14
2022-12-03T18:38:11.334Z,-0.05
2022-12-03T18:43:21.663Z,0.03
2022-12-03T18:48:31.506Z,0.02
2022-12-03T18:53:41.191Z,-0.06
2022-12-03T18:58:50.768Z,-0.09
2022-12-03T19:04:00.658Z,-0.11
2022-12-03T19:09:10.558Z,-0.12
2022-12-03T19:14:20.108Z,-0.12
2022-12-03T19:19:30.038Z,-0.06
2022-12-03T19:24:40.228Z,0.05
2022-12-03T19:29:53.142Z,0.10
2022-12-03T19:35:05.381Z,0.10
2022-12-03T19:40:16.587Z,0.07
2022-12-03T19:45:26.303Z,0.10
2022-12-03T19:50:35.998Z,0.05
2022-12-03T19:55:45.680Z,0.08
2022-12-03T20:00:55.375Z,0.14
2022-12-03T20:06:06.811Z,0.23
2022-12-03T20:11:19.348Z,0.31
2022-12-03T20:16:30.645Z,0.37
2022-12-03T20:21:42.405Z,0.40
2022-12-03T20:26:52.255Z,0.42
2022-12-03T20:32:01.689Z,0.40
2022-12-03T20:37:11.147Z,0.43
2022-12-03T20:42:20.654Z,0.49
2022-12-03T20:47:30.195Z,0.53
2022-12-03T20:52:45.267Z,0.63
2022-12-03T20:58:02.981Z,0.73
2022-12-03T21:03:12.727Z,0.73
2022-12-03T21:08:40.132Z,0.63
2022-12-03T21:13:51.299Z,0.58
2022-12-03T21:19:01.242Z,0.54
2022-12-03T21:24:11.966Z,0.52
2022-12-03T21:29:21.773Z,0.50
2022-12-03T21:34:36.181Z,0.48
2022-12-03T21:39:46.268Z,0.50
2022-12-03T21:44:55.862Z,0.46
2022-12-03T21:50:06.149Z,0.47
2022-12-03T21:55:16.075Z,0.53
2022-12-03T22:00:26.749Z,0.60
2022-12-03T22:05:39.220Z,0.65
2022-12-03T22:10:48.822Z,0.80
2022-12-03T22:15:58.702Z,0.92
2022-12-03T22:21:13.849Z,1.03
2022-12-03T22:26:23.776Z,1.06
2022-12-03T22:31:33.207Z,1.05
2022-12-03T22:36:42.633Z,1.02
2022-12-03T22:41:52.688Z,0.99
2022-12-03T22:47:02.602Z,0.95
2022-12-03T22:52:12.164Z,0.92
2022-12-03T22:57:21.760Z,0.90
2022-12-03T23:02:31.444Z,0.87
2022-12-03T23:07:41.061Z,0.90
2022-12-03T23:12:50.573Z,0.98
2022-12-03T23:18:00.421Z,1.00
2022-12-03T23:23:10.061Z,1.04
2022-12-03T23:28:19.681Z,1.11
2022-12-03T23:33:34.000Z,1.13
2022-12-03T23:38:47.403Z,1.09
2022-12-03T23:43:57.413Z,1.17
2022-12-03T23:49:06.998Z,1.21
2022-12-03T23:54:16.440Z,1.22
2022-12-03T23:59:25.779Z,1.27
